Time;durP1;ratioP1;P1;durP2;ratioP2;P2;SDS_P1;SDS_P2;PMS_P1;PMS_P2;Temp;Humidity;BMP_temperature;BMP_pressure;BME280_temperature;BME280_humidity;BME280_pressure;Samples;Min_cycle;Max_cycle;Signal;HPM_P1;HPM_P2
2023/05/29 00:01:49;;;;;;;;;;;;;;;11.68;100.00;102266.72;4987351;28;20280;-86
2023/05/29 00:04:16;;;;;;;;;;;;;;;11.53;100.00;102269.38;5007468;28;20031;-88
2023/05/29 00:06:42;;;;;;;;;;;;;;;11.60;100.00;102271.69;5006574;28;19963;-87
2023/05/29 00:09:07;;;;;;;;;;;;;;;11.68;100.00;102267.59;5006565;28;19921;-82
2023/05/29 00:11:33;;;;;;;;;;;;;;;11.62;100.00;102278.72;4992675;28;20330;-85
2023/05/29 00:13:58;;;;;;;;;;;;;;;11.52;100.00;102280.22;4986521;28;20478;-86
2023/05/29 00:16:23;;;;;;;;;;;;;;;11.45;100.00;102281.53;5004360;28;20458;-82
2023/05/29 00:18:51;;;;;;;;;;;;;;;11.45;100.00;102277.00;4988048;28;19924;-80
2023/05/29 00:21:17;;;;;;;;;;;;;;;11.42;100.00;102279.88;5002666;28;19948;-82
2023/05/29 00:23:42;;;;;;;;;;;;;;;11.33;100.00;102281.28;4991273;28;19964;-84
2023/05/29 00:26:07;;;;;;;;;;;;;;;11.32;100.00;102276.00;5006019;28;19918;-83
2023/05/29 00:28:34;;;;;;;;;;;;;;;11.23;100.00;102285.47;5003305;28;20048;-84
2023/05/29 00:30:59;;;;;;;;;;;;;;;11.22;100.00;102291.81;4990251;28;20355;-85
2023/05/29 00:33:25;;;;;;;;;;;;;;;11.30;100.00;102289.53;4980019;28;19963;-83
2023/05/29 00:35:50;;;;;;;;;;;;;;;11.22;100.00;102295.34;4990456;28;19956;-84
2023/05/29 00:38:15;;;;;;;;;;;;;;;11.19;100.00;102297.34;4988674;28;19929;-83
2023/05/29 00:40:41;;;;;;;;;;;;;;;11.09;100.00;102291.66;4988073;28;19922;-84
2023/05/29 00:43:06;;;;;;;;;;;;;;;11.04;100.00;102307.16;5005292;28;19933;-84
2023/05/29 00:45:35;;;;;;;;;;;;;;;10.96;100.00;102304.91;5004506;28;19944;-85
2023/05/29 00:48:01;;;;;;;;;;;;;;;10.93;100.00;102305.94;5005802;28;19949;-84
2023/05/29 00:50:26;;;;;;;;;;;;;;;10.97;100.00;102309.34;5006815;28;19959;-85
2023/05/29 00:52:53;;;;;;;;;;;;;;;10.87;100.00;102306.25;5005998;28;19965;-85
2023/05/29 00:55:18;;;;;;;;;;;;;;;10.76;100.00;102306.88;4985476;28;19918;-83
2023/05/29 00:57:45;;;;;;;;;;;;;;;10.76;100.00;102314.06;5003499;28;20505;-83
2023/05/29 01:00:14;;;;;;;;;;;;;;;10.63;100.00;102306.66;5006896;28;19924;-83
2023/05/29 01:02:44;;;;;;;;;;;;;;;10.61;100.00;102313.94;5001065;28;19925;-85
2023/05/29 01:05:11;;;;;;;;;;;;;;;10.68;100.00;102321.66;4984537;28;20307;-82
2023/05/29 01:07:36;;;;;;;;;;;;;;;10.58;100.00;102316.81;5004479;28;20348;-83
2023/05/29 01:10:01;;;;;;;;;;;;;;;10.49;100.00;102320.00;5021561;28;19929;-83
2023/05/29 01:12:27;;;;;;;;;;;;;;;10.41;100.00;102322.22;5000265;28;20041;-83
2023/05/29 01:14:57;;;;;;;;;;;;;;;10.42;100.00;102318.59;5004897;28;19928;-85
2023/05/29 01:17:26;;;;;;;;;;;;;;;10.40;100.00;102318.69;5006132;28;20898;-82
2023/05/29 01:20:00;;;;;;;;;;;;;;;10.45;100.00;102332.72;5003446;28;20303;-82
2023/05/29 01:22:25;;;;;;;;;;;;;;;10.44;100.00;102320.25;5004421;28;19921;-83
2023/05/29 01:25:09;;;;;;;;;;;;;;;10.46;100.00;102318.31;5006467;28;20338;-85
2023/05/29 01:27:34;;;;;;;;;;;;;;;10.33;100.00;102333.34;5001295;28;20403;-85
2023/05/29 01:29:59;;;;;;;;;;;;;;;10.28;100.00;102325.53;5010321;28;19937;-84
2023/05/29 01:32:25;;;;;;;;;;;;;;;10.25;100.00;102338.22;4987796;28;20081;-84
2023/05/29 01:34:51;;;;;;;;;;;;;;;10.17;100.00;102333.28;4992269;28;20446;-83
2023/05/29 01:37:16;;;;;;;;;;;;;;;10.22;100.00;102333.91;5005595;28;20474;-83
2023/05/29 01:39:41;;;;;;;;;;;;;;;10.22;100.00;102323.16;5004788;28;19917;-84
2023/05/29 01:42:06;;;;;;;;;;;;;;;10.25;100.00;102328.38;4998751;28;19921;-85
2023/05/29 01:44:32;;;;;;;;;;;;;;;10.30;100.00;102326.31;5015862;28;19957;-84
2023/05/29 01:46:57;;;;;;;;;;;;;;;10.22;100.00;102328.53;4997881;28;20009;-83
2023/05/29 01:49:25;;;;;;;;;;;;;;;10.18;100.00;102325.16;4982848;28;19925;-80
2023/05/29 01:51:51;;;;;;;;;;;;;;;10.16;100.00;102335.09;5001986;28;21168;-83
2023/05/29 01:54:16;;;;;;;;;;;;;;;10.11;100.00;102334.47;5005533;28;20056;-83
2023/05/29 01:56:41;;;;;;;;;;;;;;;10.09;100.00;102332.78;5003538;28;20677;-82
2023/05/29 01:59:06;;;;;;;;;;;;;;;9.93;100.00;102319.34;5000418;28;19925;-84
2023/05/29 02:01:32;;;;;;;;;;;;;;;10.00;100.00;102320.72;4997024;28;19936;-85
2023/05/29 02:03:57;;;;;;;;;;;;;;;10.12;100.00;102324.59;5001674;28;19925;-83
2023/05/29 02:06:23;;;;;;;;;;;;;;;9.98;100.00;102320.81;5000404;28;20019;-84
2023/05/29 02:08:48;;;;;;;;;;;;;;;10.01;100.00;102326.03;5002107;28;19926;-82
2023/05/29 02:11:13;;;;;;;;;;;;;;;9.92;100.00;102325.66;5002048;28;19963;-84
2023/05/29 02:13:38;;;;;;;;;;;;;;;9.87;100.00;102315.13;5002068;28;20008;-83
2023/05/29 02:16:04;;;;;;;;;;;;;;;9.86;100.00;102321.44;5002729;28;20001;-83
2023/05/29 02:18:30;;;;;;;;;;;;;;;9.86;100.00;102313.38;5015797;28;19928;-83
2023/05/29 02:20:56;;;;;;;;;;;;;;;9.71;100.00;102323.09;4999198;28;19926;-82
2023/05/29 02:23:21;;;;;;;;;;;;;;;9.74;100.00;102322.94;4996168;28;21021;-84
2023/05/29 02:25:47;;;;;;;;;;;;;;;9.76;100.00;102321.03;4979007;28;19921;-83
2023/05/29 02:28:14;;;;;;;;;;;;;;;9.72;100.00;102332.88;4995467;28;19925;-84
2023/05/29 02:30:39;;;;;;;;;;;;;;;9.69;100.00;102324.97;4994937;28;20049;-84
2023/05/29 02:33:06;;;;;;;;;;;;;;;9.70;100.00;102332.06;4997147;28;20442;-83
2023/05/29 02:35:31;;;;;;;;;;;;;;;9.70;100.00;102340.13;4979011;28;20827;-84
2023/05/29 02:37:56;;;;;;;;;;;;;;;9.75;100.00;102336.28;5016252;28;19928;-83
2023/05/29 02:40:22;;;;;;;;;;;;;;;9.64;100.00;102337.78;4993476;28;19914;-83
2023/05/29 02:42:47;;;;;;;;;;;;;;;9.74;100.00;102352.44;4993612;28;19937;-83
2023/05/29 02:45:12;;;;;;;;;;;;;;;9.66;100.00;102355.50;4997608;28;19922;-84
2023/05/29 02:47:37;;;;;;;;;;;;;;;9.58;100.00;102353.22;5014524;28;19941;-83
2023/05/29 02:50:03;;;;;;;;;;;;;;;9.56;100.00;102346.16;4998137;28;20271;-82
2023/05/29 02:52:30;;;;;;;;;;;;;;;9.54;100.00;102348.06;5003482;28;19921;-82
2023/05/29 02:54:55;;;;;;;;;;;;;;;9.49;100.00;102347.44;4998067;28;19988;-82
2023/05/29 02:57:21;;;;;;;;;;;;;;;9.56;100.00;102349.72;4992019;28;20294;-83
2023/05/29 02:59:47;;;;;;;;;;;;;;;9.55;100.00;102349.78;4994434;28;20043;-85
2023/05/29 03:02:12;;;;;;;;;;;;;;;9.57;100.00;102337.19;4994633;28;19928;-83
2023/05/29 03:04:40;;;;;;;;;;;;;;;9.59;100.00;102344.22;4988809;28;19925;-88
2023/05/29 03:07:06;;;;;;;;;;;;;;;9.45;100.00;102341.34;4986097;28;19979;-83
2023/05/29 03:09:31;;;;;;;;;;;;;;;9.56;100.00;102341.69;5009773;28;19921;-83
2023/05/29 03:11:57;;;;;;;;;;;;;;;9.49;100.00;102336.72;5007038;28;19957;-84
2023/05/29 03:14:23;;;;;;;;;;;;;;;9.47;100.00;102342.13;5009659;28;19921;-85
2023/05/29 03:16:49;;;;;;;;;;;;;;;9.47;100.00;102333.25;5008196;28;20394;-84
2023/05/29 03:19:14;;;;;;;;;;;;;;;9.44;100.00;102343.16;5012056;28;19921;-83
2023/05/29 03:21:40;;;;;;;;;;;;;;;9.42;100.00;102339.69;5009469;28;19990;-85
2023/05/29 03:24:05;;;;;;;;;;;;;;;9.33;100.00;102345.50;5023533;28;20327;-84
2023/05/29 03:26:30;;;;;;;;;;;;;;;9.30;100.00;102345.63;5011400;28;20383;-84
2023/05/29 03:28:55;;;;;;;;;;;;;;;9.33;100.00;102348.16;5008928;28;19925;-82
2023/05/29 03:31:21;;;;;;;;;;;;;;;9.30;100.00;102357.25;5009728;28;19924;-83
2023/05/29 03:33:47;;;;;;;;;;;;;;;9.35;100.00;102354.31;5009217;28;19917;-82
2023/05/29 03:36:12;;;;;;;;;;;;;;;9.26;100.00;102358.31;5005752;28;19979;-83
2023/05/29 03:38:37;;;;;;;;;;;;;;;9.26;100.00;102357.47;5004100;28;19968;-86
2023/05/29 03:41:02;;;;;;;;;;;;;;;9.29;100.00;102363.53;4984815;28;20648;-83
2023/05/29 03:43:28;;;;;;;;;;;;;;;9.33;100.00;102361.56;5001430;28;19999;-84
2023/05/29 03:45:53;;;;;;;;;;;;;;;9.34;100.00;102362.47;4988308;28;19968;-84
2023/05/29 03:48:18;;;;;;;;;;;;;;;9.18;100.00;102363.19;5016378;28;19927;-83
2023/05/29 03:50:48;;;;;;;;;;;;;;;9.17;100.00;102358.75;5025700;28;19922;-84
2023/05/29 03:53:17;;;;;;;;;;;;;;;9.11;100.00;102354.56;5002791;28;19928;-85
2023/05/29 03:55:42;;;;;;;;;;;;;;;9.18;100.00;102354.28;5000170;28;19921;-86
2023/05/29 03:58:07;;;;;;;;;;;;;;;9.29;100.00;102362.66;4999832;28;19928;-84
2023/05/29 04:00:33;;;;;;;;;;;;;;;9.27;100.00;102356.53;5003215;28;20460;-84
2023/05/29 04:02:58;;;;;;;;;;;;;;;9.22;100.00;102364.78;5009298;28;20724;-84
2023/05/29 04:05:23;;;;;;;;;;;;;;;9.18;100.00;102367.69;4993632;28;19967;-83
2023/05/29 04:07:49;;;;;;;;;;;;;;;9.17;100.00;102377.50;5009379;28;20418;-84
2023/05/29 04:10:14;;;;;;;;;;;;;;;9.17;100.00;102377.50;5002036;28;19921;-84
2023/05/29 04:12:39;;;;;;;;;;;;;;;9.24;100.00;102376.28;5003630;28;19921;-84
2023/05/29 04:15:05;;;;;;;;;;;;;;;9.28;100.00;102382.38;4986364;28;20007;-82
2023/05/29 04:17:30;;;;;;;;;;;;;;;9.20;100.00;102389.91;5007301;28;19917;-83
2023/05/29 04:19:55;;;;;;;;;;;;;;;9.21;100.00;102380.94;5003588;28;19933;-83
2023/05/29 04:22:21;;;;;;;;;;;;;;;9.37;100.00;102376.56;4999340;28;19940;-83
2023/05/29 04:24:46;;;;;;;;;;;;;;;9.42;100.00;102377.22;5001896;28;19929;-85
2023/05/29 04:27:13;;;;;;;;;;;;;;;9.50;100.00;102379.53;5001414;28;19922;-84
2023/05/29 04:29:42;;;;;;;;;;;;;;;9.36;100.00;102385.56;5002167;28;19937;-84
2023/05/29 04:32:11;;;;;;;;;;;;;;;9.39;100.00;102397.97;4999784;28;19979;-84
2023/05/29 04:34:51;;;;;;;;;;;;;;;9.37;100.00;102389.97;5017370;28;19925;-85
2023/05/29 04:37:17;;;;;;;;;;;;;;;9.34;100.00;102386.59;5015082;28;19929;-79
2023/05/29 04:39:42;;;;;;;;;;;;;;;9.45;100.00;102387.81;5001392;28;20001;-81
2023/05/29 04:42:07;;;;;;;;;;;;;;;9.52;100.00;102391.03;4982229;28;19960;-85
2023/05/29 04:44:32;;;;;;;;;;;;;;;9.59;100.00;102392.50;4985766;28;19925;-85
2023/05/29 04:46:58;;;;;;;;;;;;;;;9.54;100.00;102394.53;4988677;28;19927;-85
2023/05/29 04:49:24;;;;;;;;;;;;;;;9.59;100.00;102389.81;4982469;28;19926;-84
2023/05/29 04:51:52;;;;;;;;;;;;;;;9.54;100.00;102380.22;4998733;28;20480;-84
2023/05/29 04:54:19;;;;;;;;;;;;;;;9.62;100.00;102382.56;4980354;28;20008;-85
2023/05/29 04:56:44;;;;;;;;;;;;;;;9.64;100.00;102388.72;5015862;28;19925;-80
2023/05/29 04:59:10;;;;;;;;;;;;;;;9.53;100.00;102381.22;4979553;28;19932;-82
2023/05/29 05:01:35;;;;;;;;;;;;;;;9.72;100.00;102390.06;4998995;28;20571;-86
2023/05/29 05:04:00;;;;;;;;;;;;;;;9.73;100.00;102383.78;4984572;28;19926;-83
2023/05/29 05:06:25;;;;;;;;;;;;;;;9.73;100.00;102388.25;5002816;28;21074;-83
2023/05/29 05:08:51;;;;;;;;;;;;;;;9.97;100.00;102409.44;5003597;28;20007;-84
2023/05/29 05:11:17;;;;;;;;;;;;;;;9.94;100.00;102413.16;5003914;28;20342;-84
2023/05/29 05:13:42;;;;;;;;;;;;;;;9.80;100.00;102416.50;5004290;28;19917;-84
2023/05/29 05:16:08;;;;;;;;;;;;;;;9.82;100.00;102420.00;5004505;28;19924;-84
2023/05/29 05:18:33;;;;;;;;;;;;;;;9.83;100.00;102419.06;5005457;28;19944;-81
2023/05/29 05:20:58;;;;;;;;;;;;;;;9.92;100.00;102427.59;5005570;28;20331;-83
2023/05/29 05:23:23;;;;;;;;;;;;;;;9.91;100.00;102426.72;5005030;28;20362;-83
2023/05/29 05:25:49;;;;;;;;;;;;;;;9.97;100.00;102431.78;5010285;28;20652;-83
2023/05/29 05:28:14;;;;;;;;;;;;;;;10.03;100.00;102436.84;5001355;28;19921;-84
2023/05/29 05:30:40;;;;;;;;;;;;;;;10.04;100.00;102438.59;5004061;28;19930;-83
2023/05/29 05:33:05;;;;;;;;;;;;;;;10.13;100.00;102434.56;5010565;28;20020;-85
2023/05/29 05:35:30;;;;;;;;;;;;;;;10.13;100.00;102431.88;5006226;28;19917;-85
2023/05/29 05:37:58;;;;;;;;;;;;;;;10.08;100.00;102425.88;5003702;28;20460;-85
2023/05/29 05:40:25;;;;;;;;;;;;;;;10.32;100.00;102434.50;5015468;28;20019;-83
2023/05/29 05:42:50;;;;;;;;;;;;;;;10.42;100.00;102434.94;4999362;28;19921;-81
2023/05/29 05:45:16;;;;;;;;;;;;;;;10.41;100.00;102427.81;4979463;28;19936;-83
2023/05/29 05:47:41;;;;;;;;;;;;;;;10.50;100.00;102430.00;5014169;28;20768;-82
2023/05/29 05:50:09;;;;;;;;;;;;;;;10.55;100.00;102427.09;4981728;28;19921;-85
2023/05/29 05:52:34;;;;;;;;;;;;;;;10.73;100.00;102429.75;4992483;28;19964;-85
2023/05/29 05:55:00;;;;;;;;;;;;;;;10.74;100.00;102436.88;4997570;28;20004;-81
2023/05/29 05:57:25;;;;;;;;;;;;;;;10.75;100.00;102420.66;4997044;28;20370;-81
2023/05/29 06:02:48;;;;;;;;;;;;;;;11.00;100.00;102426.53;4996883;28;19925;-82
2023/05/29 06:05:13;;;;;;;;;;;;;;;10.97;100.00;102429.38;4980544;28;19925;-85
2023/05/29 06:07:38;;;;;;;;;;;;;;;11.12;100.00;102427.69;4998709;28;19917;-85
2023/05/29 06:10:04;;;;;;;;;;;;;;;11.05;100.00;102430.69;4995134;28;20628;-85
2023/05/29 06:12:30;;;;;;;;;;;;;;;11.06;100.00;102428.91;4978803;28;20011;-86
2023/05/29 06:14:55;;;;;;;;;;;;;;;11.20;100.00;102433.50;4984075;28;19921;-84
2023/05/29 06:17:21;;;;;;;;;;;;;;;11.13;100.00;102422.22;4993307;28;19921;-82
2023/05/29 06:19:47;;;;;;;;;;;;;;;11.15;100.00;102444.50;5014288;28;20016;-82
2023/05/29 06:22:12;;;;;;;;;;;;;;;11.33;100.00;102439.94;4994352;28;20025;-84
2023/05/29 06:24:37;;;;;;;;;;;;;;;11.46;100.00;102444.63;4982957;28;19929;-83
2023/05/29 06:27:03;;;;;;;;;;;;;;;11.61;100.00;102450.97;4998609;28;20231;-82
2023/05/29 06:29:28;;;;;;;;;;;;;;;11.69;100.00;102446.00;4988359;28;19963;-83
2023/05/29 06:31:53;;;;;;;;;;;;;;;11.59;100.00;102448.38;4999934;28;19972;-83
2023/05/29 06:34:18;;;;;;;;;;;;;;;11.61;100.00;102453.66;4996322;28;19970;-82
2023/05/29 06:36:45;;;;;;;;;;;;;;;11.59;100.00;102452.88;4995510;28;19936;-83
2023/05/29 06:39:10;;;;;;;;;;;;;;;11.62;100.00;102453.56;4976586;28;19921;-85
2023/05/29 06:41:36;;;;;;;;;;;;;;;11.76;100.00;102454.63;4996445;28;19932;-82
2023/05/29 06:44:01;;;;;;;;;;;;;;;11.79;100.00;102449.03;4992999;28;19925;-84
2023/05/29 06:46:26;;;;;;;;;;;;;;;11.87;100.00;102445.94;4993459;28;20011;-82
2023/05/29 06:48:51;;;;;;;;;;;;;;;12.03;100.00;102449.50;4996147;28;19937;-85
2023/05/29 06:51:17;;;;;;;;;;;;;;;11.98;100.00;102443.47;4993272;28;19925;-82
2023/05/29 06:53:42;;;;;;;;;;;;;;;12.13;100.00;102442.63;4997739;28;20649;-80
2023/05/29 06:56:07;;;;;;;;;;;;;;;12.17;100.00;102446.00;4981434;28;20421;-84
2023/05/29 06:58:33;;;;;;;;;;;;;;;12.33;100.00;102450.44;5003500;28;19921;-85
2023/05/29 07:00:58;;;;;;;;;;;;;;;12.34;100.00;102453.06;4997399;28;19922;-85
2023/05/29 07:03:25;;;;;;;;;;;;;;;12.49;100.00;102443.19;4998471;28;19932;-85
2023/05/29 07:05:50;;;;;;;;;;;;;;;12.47;100.00;102450.50;4989792;28;19960;-84
2023/05/29 07:08:15;;;;;;;;;;;;;;;12.49;100.00;102445.91;4996523;28;19925;-84
2023/05/29 07:10:40;;;;;;;;;;;;;;;12.70;100.00;102441.03;4993860;28;19922;-84
2023/05/29 07:13:06;;;;;;;;;;;;;;;12.75;100.00;102449.69;4992552;28;19929;-85
2023/05/29 07:15:31;;;;;;;;;;;;;;;12.75;100.00;102452.38;4984256;28;20356;-82
2023/05/29 07:17:57;;;;;;;;;;;;;;;12.96;100.00;102446.63;5000764;28;20059;-82
2023/05/29 07:20:22;;;;;;;;;;;;;;;12.99;100.00;102445.56;4991777;28;19921;-83
2023/05/29 07:22:47;;;;;;;;;;;;;;;13.30;100.00;102452.56;4993397;28;19963;-85
2023/05/29 07:25:13;;;;;;;;;;;;;;;13.10;100.00;102444.88;4996848;28;19968;-85
2023/05/29 07:27:38;;;;;;;;;;;;;;;13.34;100.00;102454.13;4983785;28;19928;-84
2023/05/29 07:30:05;;;;;;;;;;;;;;;13.48;93.40;102466.75;4998522;28;19914;-84
2023/05/29 07:32:30;;;;;;;;;;;;;;;13.15;95.59;102454.41;5002960;28;19921;-82
2023/05/29 07:34:56;;;;;;;;;;;;;;;13.45;100.00;102464.25;5000371;28;19921;-83
2023/05/29 07:37:21;;;;;;;;;;;;;;;13.68;97.52;102459.19;4987156;28;19921;-85
2023/05/29 07:39:46;;;;;;;;;;;;;;;13.57;94.84;102467.97;5001373;28;20332;-85
2023/05/29 07:42:12;;;;;;;;;;;;;;;13.73;97.69;102461.59;5016386;28;20020;-84
2023/05/29 07:44:44;;;;;;;;;;;;;;;13.94;98.17;102470.97;5004147;28;20039;-86
2023/05/29 07:47:09;;;;;;;;;;;;;;;13.96;100.00;102468.16;5004388;28;19922;-84
2023/05/29 07:49:35;;;;;;;;;;;;;;;13.91;92.17;102471.19;4997070;28;19929;-82
2023/05/29 07:52:01;;;;;;;;;;;;;;;13.71;92.28;102477.03;5001001;28;19944;-83
2023/05/29 07:54:26;;;;;;;;;;;;;;;13.98;95.08;102463.53;5017694;28;20204;-85
2023/05/29 07:56:52;;;;;;;;;;;;;;;14.07;96.16;102465.63;5022807;28;19929;-84
2023/05/29 07:59:19;;;;;;;;;;;;;;;14.01;90.52;102468.72;5003518;28;20595;-86
2023/05/29 08:01:45;;;;;;;;;;;;;;;14.21;91.27;102461.13;5003885;28;19921;-83
2023/05/29 08:04:11;;;;;;;;;;;;;;;14.48;90.43;102471.00;5003532;28;19932;-85
2023/05/29 08:06:36;;;;;;;;;;;;;;;14.53;86.73;102476.97;5003643;28;19921;-84
2023/05/29 08:09:02;;;;;;;;;;;;;;;14.35;80.74;102474.56;5000398;28;20149;-84
2023/05/29 08:11:27;;;;;;;;;;;;;;;14.35;83.99;102481.78;4989311;28;19921;-84
2023/05/29 08:13:52;;;;;;;;;;;;;;;14.69;82.08;102476.81;4999712;28;19922;-82
2023/05/29 08:16:18;;;;;;;;;;;;;;;14.78;84.89;102476.19;4985999;28;19921;-81
2023/05/29 08:18:43;;;;;;;;;;;;;;;14.96;81.23;102483.97;5004452;28;19970;-85
2023/05/29 08:21:09;;;;;;;;;;;;;;;14.85;84.27;102471.22;5005637;28;20147;-83
2023/05/29 08:23:34;;;;;;;;;;;;;;;14.95;77.35;102485.81;5002150;28;19929;-85
2023/05/29 08:26:00;;;;;;;;;;;;;;;14.84;76.16;102483.84;5000800;28;19925;-84
2023/05/29 08:28:28;;;;;;;;;;;;;;;14.96;83.08;102481.25;4991649;28;19927;-85
2023/05/29 08:30:53;;;;;;;;;;;;;;;15.11;79.82;102479.31;4993052;28;20348;-84
2023/05/29 08:33:18;;;;;;;;;;;;;;;15.35;73.04;102484.81;4988702;28;19921;-82
2023/05/29 08:35:44;;;;;;;;;;;;;;;15.06;73.23;102476.06;4989715;28;19928;-84
2023/05/29 08:38:09;;;;;;;;;;;;;;;15.37;74.37;102482.84;4975694;28;19921;-85
2023/05/29 08:40:35;;;;;;;;;;;;;;;15.51;71.91;102483.69;4992567;28;20345;-84
2023/05/29 08:43:02;;;;;;;;;;;;;;;15.52;76.01;102488.13;4973248;28;20112;-83
2023/05/29 08:45:28;;;;;;;;;;;;;;;15.55;73.31;102493.31;4989691;28;20044;-81
2023/05/29 08:47:54;;;;;;;;;;;;;;;15.62;72.99;102494.63;4988909;28;19922;-82
2023/05/29 08:50:20;;;;;;;;;;;;;;;15.58;78.69;102490.41;4993191;28;19929;-82
2023/05/29 08:52:46;;;;;;;;;;;;;;;15.72;73.52;102495.66;4991237;28;19921;-82
2023/05/29 08:55:11;;;;;;;;;;;;;;;15.80;72.28;102495.06;4978506;28;19921;-83
2023/05/29 08:57:38;;;;;;;;;;;;;;;15.99;73.23;102488.34;4999998;28;20631;-82
2023/05/29 09:00:12;;;;;;;;;;;;;;;16.14;70.07;102495.31;5002992;28;19922;-83
2023/05/29 09:02:38;;;;;;;;;;;;;;;16.12;71.16;102489.13;5003101;28;19921;-83
2023/05/29 09:05:03;;;;;;;;;;;;;;;16.22;75.43;102497.44;5006742;28;19929;-84
2023/05/29 09:07:30;;;;;;;;;;;;;;;16.49;77.22;102490.88;5003442;28;19921;-82
2023/05/29 09:09:55;;;;;;;;;;;;;;;16.48;72.49;102486.44;5004295;28;19921;-84
2023/05/29 09:12:21;;;;;;;;;;;;;;;16.63;69.88;102487.09;5006394;28;19925;-84
2023/05/29 09:14:47;;;;;;;;;;;;;;;16.56;68.50;102491.25;5005850;28;20468;-82
2023/05/29 09:17:12;;;;;;;;;;;;;;;16.73;71.26;102488.13;5001390;28;19922;-83
2023/05/29 09:19:40;;;;;;;;;;;;;;;16.99;74.28;102495.22;5005193;28;20383;-84
2023/05/29 09:22:14;;;;;;;;;;;;;;;17.22;69.88;102494.25;5021279;28;19921;-84
2023/05/29 09:24:40;;;;;;;;;;;;;;;16.97;69.20;102483.63;5000856;28;20028;-84
2023/05/29 09:27:18;;;;;;;;;;;;;;;16.97;75.28;102486.31;5004520;28;20013;-90
2023/05/29 09:29:45;;;;;;;;;;;;;;;17.26;67.09;102483.13;4993366;28;20007;-87
2023/05/29 09:32:11;;;;;;;;;;;;;;;17.34;64.00;102481.56;5007955;28;19921;-89
2023/05/29 09:34:40;;;;;;;;;;;;;;;17.59;64.71;102485.00;4991146;28;19929;-89
2023/05/29 09:37:09;;;;;;;;;;;;;;;17.58;71.88;102482.38;5006002;28;19925;-87
2023/05/29 09:39:44;;;;;;;;;;;;;;;17.42;65.58;102489.06;4988363;28;19929;-86
2023/05/29 09:42:09;;;;;;;;;;;;;;;17.47;65.83;102489.56;5005359;28;20371;-86
2023/05/29 09:44:36;;;;;;;;;;;;;;;17.62;64.66;102489.28;5004109;28;19994;-89
2023/05/29 09:47:01;;;;;;;;;;;;;;;17.79;63.04;102482.47;5004961;28;19921;-87
2023/05/29 09:49:29;;;;;;;;;;;;;;;17.65;62.63;102495.31;5018560;28;20007;-86
2023/05/29 09:51:55;;;;;;;;;;;;;;;17.54;62.90;102495.34;4990522;28;20442;-87
2023/05/29 09:54:21;;;;;;;;;;;;;;;17.56;64.81;102496.09;5004878;28;20051;-84
2023/05/29 09:56:47;;;;;;;;;;;;;;;17.75;61.13;102489.16;5003686;28;20082;-88
2023/05/29 09:59:18;;;;;;;;;;;;;;;17.83;68.03;102482.09;5022080;28;20843;-88
2023/05/29 10:01:46;;;;;;;;;;;;;;;17.76;63.17;102478.13;4990894;28;19928;-87
2023/05/29 10:04:13;;;;;;;;;;;;;;;18.06;59.88;102478.47;5002053;28;19925;-92
2023/05/29 10:06:41;;;;;;;;;;;;;;;17.96;58.70;102478.34;4986965;28;20041;-87
2023/05/29 10:09:10;;;;;;;;;;;;;;;17.96;63.33;102471.06;4983732;28;20387;-91
2023/05/29 10:11:35;;;;;;;;;;;;;;;18.42;58.74;102477.19;5000926;28;19926;-86
2023/05/29 10:14:00;;;;;;;;;;;;;;;18.32;59.20;102473.53;4991300;28;19968;-88
2023/05/29 10:16:26;;;;;;;;;;;;;;;18.70;57.67;102473.94;5002930;28;19913;-88
2023/05/29 10:18:55;;;;;;;;;;;;;;;19.08;59.57;102469.75;4984950;28;20008;-87
2023/05/29 10:21:21;;;;;;;;;;;;;;;19.30;56.33;102476.00;5007244;28;19929;-89
2023/05/29 10:23:50;;;;;;;;;;;;;;;19.29;55.75;102471.56;5004277;28;20283;-87
2023/05/29 10:26:30;;;;;;;;;;;;;;;19.24;56.81;102466.53;5004913;28;20060;-89
2023/05/29 10:29:04;;;;;;;;;;;;;;;19.43;62.02;102467.59;4996621;28;20272;-87
2023/05/29 10:31:32;;;;;;;;;;;;;;;19.50;55.84;102468.75;4985834;28;20276;-88
2023/05/29 10:34:09;;;;;;;;;;;;;;;19.69;57.82;102467.97;4982357;28;19939;-86
2023/05/29 10:36:42;;;;;;;;;;;;;;;19.83;53.85;102461.25;4992064;28;19925;-86
2023/05/29 10:39:09;;;;;;;;;;;;;;;19.69;58.30;102470.69;5000688;28;20380;-87
2023/05/29 10:41:39;;;;;;;;;;;;;;;20.13;56.07;102455.81;5002448;28;20681;-86
2023/05/29 10:44:04;;;;;;;;;;;;;;;20.13;52.15;102469.47;5005177;28;19929;-85
2023/05/29 10:46:42;;;;;;;;;;;;;;;20.22;52.26;102461.28;5003873;28;20829;-88
2023/05/29 10:49:17;;;;;;;;;;;;;;;20.49;49.93;102456.09;5002534;28;19922;-89
2023/05/29 10:51:43;;;;;;;;;;;;;;;20.72;49.39;102456.59;4994999;28;19917;-87
2023/05/29 10:54:08;;;;;;;;;;;;;;;20.60;50.41;102457.81;4977044;28;20410;-87
2023/05/29 10:56:34;;;;;;;;;;;;;;;20.48;50.70;102457.09;5000806;28;19983;-86
2023/05/29 10:59:01;;;;;;;;;;;;;;;20.39;51.74;102456.13;5002680;28;19914;-88
2023/05/29 11:01:27;;;;;;;;;;;;;;;20.29;50.92;102458.81;5004646;28;19921;-88
2023/05/29 11:03:54;;;;;;;;;;;;;;;20.73;53.77;102450.16;4998002;28;20383;-87
2023/05/29 11:06:25;;;;;;;;;;;;;;;20.88;50.43;102457.91;4985013;28;21867;-87
2023/05/29 11:08:54;;;;;;;;;;;;;;;20.79;51.16;102463.25;4998943;28;19937;-85
2023/05/29 11:11:34;;;;;;;;;;;;;;;21.24;49.66;102461.63;5016196;28;19917;-88
2023/05/29 11:14:04;;;;;;;;;;;;;;;21.70;49.14;102455.38;5004199;28;20938;-90
2023/05/29 11:16:30;;;;;;;;;;;;;;;21.79;47.26;102449.00;4995716;28;20287;-87
2023/05/29 11:18:58;;;;;;;;;;;;;;;22.09;47.46;102444.16;5001393;28;20008;-90
2023/05/29 11:21:34;;;;;;;;;;;;;;;20.98;49.02;102451.41;4980536;28;20399;-88
2023/05/29 11:24:04;;;;;;;;;;;;;;;21.19;48.52;102450.31;5000385;28;19921;-86
2023/05/29 11:26:30;;;;;;;;;;;;;;;21.85;48.88;102445.59;5008686;28;19956;-88
2023/05/29 11:29:11;;;;;;;;;;;;;;;21.66;46.13;102449.38;5005827;28;20537;-87
2023/05/29 11:31:36;;;;;;;;;;;;;;;22.36;49.76;102445.06;4996733;28;19927;-87
2023/05/29 11:34:04;;;;;;;;;;;;;;;22.30;46.68;102443.78;5010318;28;20021;-86
2023/05/29 11:36:40;;;;;;;;;;;;;;;22.46;47.47;102445.00;5009010;28;19924;-87
2023/05/29 11:39:05;;;;;;;;;;;;;;;22.53;43.58;102437.00;5008015;28;19918;-86
2023/05/29 11:41:31;;;;;;;;;;;;;;;22.60;44.29;102443.56;5023897;28;20069;-84
2023/05/29 11:43:57;;;;;;;;;;;;;;;21.94;44.30;102441.09;5000673;28;19922;-85
2023/05/29 11:46:23;;;;;;;;;;;;;;;22.25;47.77;102437.09;4995955;28;19924;-87
2023/05/29 11:48:48;;;;;;;;;;;;;;;22.36;44.77;102430.50;4998535;28;19917;-85
2023/05/29 11:51:14;;;;;;;;;;;;;;;23.00;43.76;102436.59;5015721;28;19925;-87
2023/05/29 11:53:43;;;;;;;;;;;;;;;22.73;42.19;102434.91;5001287;28;19953;-86
2023/05/29 11:56:10;;;;;;;;;;;;;;;22.83;43.36;102432.91;5009207;28;19932;-88
2023/05/29 11:58:39;;;;;;;;;;;;;;;22.66;46.79;102433.81;5007823;28;19929;-90
2023/05/29 12:01:05;;;;;;;;;;;;;;;22.89;45.91;102436.88;5009303;28;19948;-88
2023/05/29 12:03:31;;;;;;;;;;;;;;;22.92;45.42;102431.06;4997474;28;19929;-87
2023/05/29 12:05:56;;;;;;;;;;;;;;;23.26;42.56;102434.84;5018290;28;19928;-88
2023/05/29 12:08:23;;;;;;;;;;;;;;;23.20;41.77;102437.19;5005902;28;20583;-85
2023/05/29 12:10:48;;;;;;;;;;;;;;;22.80;44.15;102435.09;4998818;28;19944;-88
2023/05/29 12:13:16;;;;;;;;;;;;;;;21.36;42.23;102434.09;5015211;28;19925;-87
2023/05/29 12:15:42;;;;;;;;;;;;;;;21.50;43.35;102427.25;5001995;28;20410;-86
2023/05/29 12:18:07;;;;;;;;;;;;;;;21.58;45.31;102419.16;5013686;28;19921;-88
2023/05/29 12:20:33;;;;;;;;;;;;;;;22.37;43.94;102424.00;5002939;28;20362;-89
2023/05/29 12:22:59;;;;;;;;;;;;;;;22.23;46.03;102428.19;5014925;28;19952;-88
2023/05/29 12:25:25;;;;;;;;;;;;;;;21.93;43.62;102430.31;5012671;28;19928;-89
2023/05/29 12:27:50;;;;;;;;;;;;;;;22.05;43.29;102434.53;4996377;28;19913;-88
2023/05/29 12:30:18;;;;;;;;;;;;;;;22.19;43.66;102433.13;5020617;28;19921;-85
2023/05/29 12:32:47;;;;;;;;;;;;;;;22.52;39.93;102436.13;5006500;28;19925;-92